sensor_id;sensor_type;location;lat;lon;timestamp;P1;durP1;ratioP1;P2;durP2;ratioP2
51824;SDS011;37879;52.986;6.282;2022-07-23T00:01:32;6.05;;;3.42;;
51824;SDS011;37879;52.986;6.282;2022-07-23T00:04:02;6.10;;;3.80;;
51824;SDS011;37879;52.986;6.282;2022-07-23T00:06:28;6.75;;;3.72;;
51824;SDS011;37879;52.986;6.282;2022-07-23T00:08:54;6.75;;;4.03;;
51824;SDS011;37879;52.986;6.282;2022-07-23T00:11:20;5.95;;;4.05;;
51824;SDS011;37879;52.986;6.282;2022-07-23T00:13:47;6.75;;;3.85;;
51824;SDS011;37879;52.986;6.282;2022-07-23T00:16:16;5.03;;;3.00;;
51824;SDS011;37879;52.986;6.282;2022-07-23T00:18:42;7.15;;;4.10;;
51824;SDS011;37879;52.986;6.282;2022-07-23T00:21:08;7.15;;;3.72;;
51824;SDS011;37879;52.986;6.282;2022-07-23T00:23:35;7.70;;;3.80;;
51824;SDS011;37879;52.986;6.282;2022-07-23T00:26:01;5.82;;;3.88;;
51824;SDS011;37879;52.986;6.282;2022-07-23T00:28:27;5.05;;;3.10;;
51824;SDS011;37879;52.986;6.282;2022-07-23T00:30:53;5.95;;;3.38;;
51824;SDS011;37879;52.986;6.282;2022-07-23T00:33:19;6.43;;;3.50;;
51824;SDS011;37879;52.986;6.282;2022-07-23T00:35:45;5.53;;;3.70;;
51824;SDS011;37879;52.986;6.282;2022-07-23T00:38:11;4.63;;;3.10;;
51824;SDS011;37879;52.986;6.282;2022-07-23T00:40:38;6.55;;;2.80;;
51824;SDS011;37879;52.986;6.282;2022-07-23T00:43:04;5.13;;;2.80;;
51824;SDS011;37879;52.986;6.282;2022-07-23T00:45:30;4.60;;;3.03;;
51824;SDS011;37879;52.986;6.282;2022-07-23T00:47:57;4.95;;;3.13;;
51824;SDS011;37879;52.986;6.282;2022-07-23T00:50:23;5.57;;;3.10;;
51824;SDS011;37879;52.986;6.282;2022-07-23T00:52:50;6.85;;;2.95;;
51824;SDS011;37879;52.986;6.282;2022-07-23T00:55:16;7.38;;;3.17;;
51824;SDS011;37879;52.986;6.282;2022-07-23T00:57:42;4.93;;;3.25;;
51824;SDS011;37879;52.986;6.282;2022-07-23T01:00:10;6.40;;;3.55;;
51824;SDS011;37879;52.986;6.282;2022-07-23T01:02:36;6.38;;;3.35;;
51824;SDS011;37879;52.986;6.282;2022-07-23T01:05:03;4.82;;;2.80;;
51824;SDS011;37879;52.986;6.282;2022-07-23T01:07:29;4.50;;;2.95;;
51824;SDS011;37879;52.986;6.282;2022-07-23T01:09:55;6.18;;;3.47;;
51824;SDS011;37879;52.986;6.282;2022-07-23T01:12:22;4.80;;;2.70;;
51824;SDS011;37879;52.986;6.282;2022-07-23T01:14:54;4.82;;;3.22;;
51824;SDS011;37879;52.986;6.282;2022-07-23T01:17:21;6.03;;;3.85;;
51824;SDS011;37879;52.986;6.282;2022-07-23T01:19:47;6.43;;;4.15;;
51824;SDS011;37879;52.986;6.282;2022-07-23T01:22:13;5.82;;;3.47;;
51824;SDS011;37879;52.986;6.282;2022-07-23T01:24:40;4.60;;;3.25;;
51824;SDS011;37879;52.986;6.282;2022-07-23T01:27:06;4.97;;;3.75;;
51824;SDS011;37879;52.986;6.282;2022-07-23T01:29:32;5.05;;;3.10;;
51824;SDS011;37879;52.986;6.282;2022-07-23T01:31:58;5.53;;;2.97;;
51824;SDS011;37879;52.986;6.282;2022-07-23T01:34:25;6.03;;;2.35;;
51824;SDS011;37879;52.986;6.282;2022-07-23T01:36:51;4.57;;;2.80;;
51824;SDS011;37879;52.986;6.282;2022-07-23T01:39:17;5.20;;;2.58;;
51824;SDS011;37879;52.986;6.282;2022-07-23T01:41:43;4.97;;;3.17;;
51824;SDS011;37879;52.986;6.282;2022-07-23T01:44:09;5.93;;;3.50;;
51824;SDS011;37879;52.986;6.282;2022-07-23T01:46:35;5.13;;;2.88;;
51824;SDS011;37879;52.986;6.282;2022-07-23T01:49:01;5.25;;;2.92;;
51824;SDS011;37879;52.986;6.282;2022-07-23T01:51:27;6.65;;;2.83;;
51824;SDS011;37879;52.986;6.282;2022-07-23T01:53:53;5.03;;;2.58;;
51824;SDS011;37879;52.986;6.282;2022-07-23T01:56:19;5.20;;;3.03;;
51824;SDS011;37879;52.986;6.282;2022-07-23T01:58:46;4.20;;;3.03;;
51824;SDS011;37879;52.986;6.282;2022-07-23T02:01:13;3.83;;;2.50;;
51824;SDS011;37879;52.986;6.282;2022-07-23T02:03:39;4.57;;;2.67;;
51824;SDS011;37879;52.986;6.282;2022-07-23T02:06:05;6.20;;;2.60;;
51824;SDS011;37879;52.986;6.282;2022-07-23T02:08:31;4.25;;;2.47;;
51824;SDS011;37879;52.986;6.282;2022-07-23T02:10:57;3.53;;;2.22;;
51824;SDS011;37879;52.986;6.282;2022-07-23T02:13:23;3.63;;;2.28;;
51824;SDS011;37879;52.986;6.282;2022-07-23T02:15:49;4.75;;;2.00;;
51824;SDS011;37879;52.986;6.282;2022-07-23T02:18:15;3.17;;;2.17;;
51824;SDS011;37879;52.986;6.282;2022-07-23T02:20:42;3.05;;;1.60;;
51824;SDS011;37879;52.986;6.282;2022-07-23T02:23:09;2.53;;;1.70;;
51824;SDS011;37879;52.986;6.282;2022-07-23T02:25:35;3.35;;;1.52;;
51824;SDS011;37879;52.986;6.282;2022-07-23T02:28:01;4.70;;;1.98;;
51824;SDS011;37879;52.986;6.282;2022-07-23T02:30:28;4.00;;;2.00;;
51824;SDS011;37879;52.986;6.282;2022-07-23T02:32:54;3.58;;;2.13;;
51824;SDS011;37879;52.986;6.282;2022-07-23T02:35:20;3.55;;;1.98;;
51824;SDS011;37879;52.986;6.282;2022-07-23T02:37:46;2.58;;;1.80;;
51824;SDS011;37879;52.986;6.282;2022-07-23T02:40:12;3.45;;;1.92;;
51824;SDS011;37879;52.986;6.282;2022-07-23T02:42:38;2.35;;;1.48;;
51824;SDS011;37879;52.986;6.282;2022-07-23T02:45:05;4.18;;;1.60;;
51824;SDS011;37879;52.986;6.282;2022-07-23T02:47:32;3.22;;;1.65;;
51824;SDS011;37879;52.986;6.282;2022-07-23T02:49:58;3.42;;;1.80;;
51824;SDS011;37879;52.986;6.282;2022-07-23T02:52:24;4.18;;;1.88;;
51824;SDS011;37879;52.986;6.282;2022-07-23T02:54:50;3.83;;;1.50;;
51824;SDS011;37879;52.986;6.282;2022-07-23T02:57:16;3.30;;;1.70;;
51824;SDS011;37879;52.986;6.282;2022-07-23T02:59:42;4.80;;;2.25;;
51824;SDS011;37879;52.986;6.282;2022-07-23T03:02:08;3.50;;;1.98;;
51824;SDS011;37879;52.986;6.282;2022-07-23T03:04:34;4.35;;;1.90;;
51824;SDS011;37879;52.986;6.282;2022-07-23T03:07:00;5.85;;;2.65;;
51824;SDS011;37879;52.986;6.282;2022-07-23T03:09:27;5.07;;;3.25;;
51824;SDS011;37879;52.986;6.282;2022-07-23T03:11:53;4.40;;;2.10;;
51824;SDS011;37879;52.986;6.282;2022-07-23T03:14:19;4.20;;;2.10;;
51824;SDS011;37879;52.986;6.282;2022-07-23T03:16:45;6.30;;;2.45;;
51824;SDS011;37879;52.986;6.282;2022-07-23T03:19:11;3.88;;;2.13;;
51824;SDS011;37879;52.986;6.282;2022-07-23T03:21:37;3.88;;;2.42;;
51824;SDS011;37879;52.986;6.282;2022-07-23T03:24:07;4.75;;;2.55;;
51824;SDS011;37879;52.986;6.282;2022-07-23T03:26:33;5.15;;;2.97;;
51824;SDS011;37879;52.986;6.282;2022-07-23T03:28:59;3.10;;;1.85;;
51824;SDS011;37879;52.986;6.282;2022-07-23T03:31:26;3.50;;;2.17;;
51824;SDS011;37879;52.986;6.282;2022-07-23T03:33:52;5.32;;;2.75;;
51824;SDS011;37879;52.986;6.282;2022-07-23T03:36:18;3.65;;;2.22;;
51824;SDS011;37879;52.986;6.282;2022-07-23T03:38:44;4.88;;;2.63;;
51824;SDS011;37879;52.986;6.282;2022-07-23T03:41:10;5.10;;;2.88;;
51824;SDS011;37879;52.986;6.282;2022-07-23T03:43:36;4.53;;;2.85;;
51824;SDS011;37879;52.986;6.282;2022-07-23T03:46:03;4.63;;;2.63;;
51824;SDS011;37879;52.986;6.282;2022-07-23T03:48:29;6.93;;;2.80;;
51824;SDS011;37879;52.986;6.282;2022-07-23T03:50:55;4.20;;;2.60;;
51824;SDS011;37879;52.986;6.282;2022-07-23T03:53:21;3.30;;;2.00;;
51824;SDS011;37879;52.986;6.282;2022-07-23T03:55:47;7.07;;;3.25;;
51824;SDS011;37879;52.986;6.282;2022-07-23T03:58:13;4.63;;;2.60;;
51824;SDS011;37879;52.986;6.282;2022-07-23T04:00:39;4.13;;;2.85;;
51824;SDS011;37879;52.986;6.282;2022-07-23T04:03:05;4.68;;;2.38;;
51824;SDS011;37879;52.986;6.282;2022-07-23T04:05:31;6.97;;;3.25;;
51824;SDS011;37879;52.986;6.282;2022-07-23T04:07:58;4.10;;;2.10;;
51824;SDS011;37879;52.986;6.282;2022-07-23T04:10:24;4.32;;;2.30;;
51824;SDS011;37879;52.986;6.282;2022-07-23T04:12:50;5.50;;;2.67;;
51824;SDS011;37879;52.986;6.282;2022-07-23T04:15:16;5.35;;;2.70;;
51824;SDS011;37879;52.986;6.282;2022-07-23T04:17:42;7.60;;;2.75;;
51824;SDS011;37879;52.986;6.282;2022-07-23T04:20:10;5.05;;;2.20;;
51824;SDS011;37879;52.986;6.282;2022-07-23T04:22:36;4.03;;;2.40;;
51824;SDS011;37879;52.986;6.282;2022-07-23T04:25:02;4.15;;;2.30;;
51824;SDS011;37879;52.986;6.282;2022-07-23T04:27:29;6.88;;;2.95;;
51824;SDS011;37879;52.986;6.282;2022-07-23T04:29:55;4.75;;;2.90;;
51824;SDS011;37879;52.986;6.282;2022-07-23T04:32:21;9.05;;;3.83;;
51824;SDS011;37879;52.986;6.282;2022-07-23T04:34:47;8.05;;;3.72;;
51824;SDS011;37879;52.986;6.282;2022-07-23T04:37:13;10.18;;;4.53;;
51824;SDS011;37879;52.986;6.282;2022-07-23T04:39:39;8.10;;;4.10;;
51824;SDS011;37879;52.986;6.282;2022-07-23T04:42:05;9.15;;;4.68;;
51824;SDS011;37879;52.986;6.282;2022-07-23T04:44:32;6.95;;;4.40;;
51824;SDS011;37879;52.986;6.282;2022-07-23T04:46:58;10.70;;;4.95;;
51824;SDS011;37879;52.986;6.282;2022-07-23T04:49:24;8.02;;;3.85;;
51824;SDS011;37879;52.986;6.282;2022-07-23T04:51:50;7.13;;;4.95;;
51824;SDS011;37879;52.986;6.282;2022-07-23T04:54:16;8.55;;;4.78;;
51824;SDS011;37879;52.986;6.282;2022-07-23T04:56:42;7.15;;;4.13;;
51824;SDS011;37879;52.986;6.282;2022-07-23T04:59:08;6.18;;;3.83;;
51824;SDS011;37879;52.986;6.282;2022-07-23T05:01:34;5.93;;;3.85;;
51824;SDS011;37879;52.986;6.282;2022-07-23T05:04:00;4.93;;;3.17;;
51824;SDS011;37879;52.986;6.282;2022-07-23T05:06:27;6.07;;;3.05;;
51824;SDS011;37879;52.986;6.282;2022-07-23T05:08:53;7.10;;;4.32;;
51824;SDS011;37879;52.986;6.282;2022-07-23T05:11:20;5.55;;;3.30;;
51824;SDS011;37879;52.986;6.282;2022-07-23T05:13:46;5.63;;;3.75;;
51824;SDS011;37879;52.986;6.282;2022-07-23T05:16:12;8.15;;;4.07;;
51824;SDS011;37879;52.986;6.282;2022-07-23T05:18:38;9.25;;;4.20;;
51824;SDS011;37879;52.986;6.282;2022-07-23T05:21:04;9.95;;;3.38;;
51824;SDS011;37879;52.986;6.282;2022-07-23T05:23:30;5.70;;;3.17;;
51824;SDS011;37879;52.986;6.282;2022-07-23T05:25:57;6.13;;;3.58;;
51824;SDS011;37879;52.986;6.282;2022-07-23T05:28:23;4.25;;;2.85;;
51824;SDS011;37879;52.986;6.282;2022-07-23T05:30:49;7.85;;;3.20;;
51824;SDS011;37879;52.986;6.282;2022-07-23T05:33:16;4.88;;;3.00;;
51824;SDS011;37879;52.986;6.282;2022-07-23T05:35:44;4.18;;;2.83;;
51824;SDS011;37879;52.986;6.282;2022-07-23T05:38:10;6.28;;;3.25;;
51824;SDS011;37879;52.986;6.282;2022-07-23T05:40:36;5.28;;;3.08;;
51824;SDS011;37879;52.986;6.282;2022-07-23T05:43:02;5.35;;;3.30;;
51824;SDS011;37879;52.986;6.282;2022-07-23T05:45:28;9.68;;;3.15;;
51824;SDS011;37879;52.986;6.282;2022-07-23T05:47:54;5.93;;;2.85;;
51824;SDS011;37879;52.986;6.282;2022-07-23T05:50:20;4.47;;;3.17;;
51824;SDS011;37879;52.986;6.282;2022-07-23T05:52:46;5.18;;;3.38;;
51824;SDS011;37879;52.986;6.282;2022-07-23T05:55:13;5.10;;;3.17;;
51824;SDS011;37879;52.986;6.282;2022-07-23T05:57:39;8.48;;;3.85;;
51824;SDS011;37879;52.986;6.282;2022-07-23T06:00:06;4.70;;;3.10;;
51824;SDS011;37879;52.986;6.282;2022-07-23T06:02:33;7.40;;;3.40;;
51824;SDS011;37879;52.986;6.282;2022-07-23T06:04:59;6.35;;;2.95;;
51824;SDS011;37879;52.986;6.282;2022-07-23T06:07:25;5.13;;;3.58;;
51824;SDS011;37879;52.986;6.282;2022-07-23T06:09:51;7.45;;;3.60;;
51824;SDS011;37879;52.986;6.282;2022-07-23T06:12:17;4.85;;;3.10;;
51824;SDS011;37879;52.986;6.282;2022-07-23T06:14:43;4.47;;;3.17;;
51824;SDS011;37879;52.986;6.282;2022-07-23T06:17:09;3.78;;;2.70;;
51824;SDS011;37879;52.986;6.282;2022-07-23T06:19:36;8.93;;;2.97;;
51824;SDS011;37879;52.986;6.282;2022-07-23T06:22:02;5.68;;;2.85;;
51824;SDS011;37879;52.986;6.282;2022-07-23T06:24:28;4.35;;;2.67;;
51824;SDS011;37879;52.986;6.282;2022-07-23T06:26:54;3.95;;;2.28;;
51824;SDS011;37879;52.986;6.282;2022-07-23T06:29:20;4.28;;;2.13;;
51824;SDS011;37879;52.986;6.282;2022-07-23T06:31:46;5.22;;;2.13;;
51824;SDS011;37879;52.986;6.282;2022-07-23T06:34:12;5.00;;;2.05;;
51824;SDS011;37879;52.986;6.282;2022-07-23T06:36:39;7.97;;;2.42;;
51824;SDS011;37879;52.986;6.282;2022-07-23T06:39:05;3.95;;;2.00;;
51824;SDS011;37879;52.986;6.282;2022-07-23T06:41:31;4.25;;;1.83;;
51824;SDS011;37879;52.986;6.282;2022-07-23T06:43:57;2.90;;;1.20;;
51824;SDS011;37879;52.986;6.282;2022-07-23T06:46:24;2.17;;;1.10;;
51824;SDS011;37879;52.986;6.282;2022-07-23T06:48:50;2.53;;;1.20;;
51824;SDS011;37879;52.986;6.282;2022-07-23T06:51:16;3.00;;;1.40;;
51824;SDS011;37879;52.986;6.282;2022-07-23T06:53:42;2.92;;;1.00;;
51824;SDS011;37879;52.986;6.282;2022-07-23T06:56:08;2.35;;;0.80;;
51824;SDS011;37879;52.986;6.282;2022-07-23T06:58:34;2.15;;;0.80;;
51824;SDS011;37879;52.986;6.282;2022-07-23T07:01:00;2.63;;;0.70;;
51824;SDS011;37879;52.986;6.282;2022-07-23T07:03:26;3.03;;;0.47;;
51824;SDS011;37879;52.986;6.282;2022-07-23T07:05:53;1.95;;;0.73;;
51824;SDS011;37879;52.986;6.282;2022-07-23T07:08:19;2.10;;;0.77;;
51824;SDS011;37879;52.986;6.282;2022-07-23T07:10:45;1.33;;;0.68;;
51824;SDS011;37879;52.986;6.282;2022-07-23T07:13:12;2.25;;;0.60;;
51824;SDS011;37879;52.986;6.282;2022-07-23T07:15:38;2.65;;;0.68;;
51824;SDS011;37879;52.986;6.282;2022-07-23T07:18:04;2.08;;;0.70;;
51824;SDS011;37879;52.986;6.282;2022-07-23T07:20:30;3.63;;;1.17;;
51824;SDS011;37879;52.986;6.282;2022-07-23T07:22:56;0.88;;;0.52;;
51824;SDS011;37879;52.986;6.282;2022-07-23T07:25:23;0.95;;;0.50;;
51824;SDS011;37879;52.986;6.282;2022-07-23T07:27:49;0.85;;;0.50;;
51824;SDS011;37879;52.986;6.282;2022-07-23T07:30:15;2.75;;;0.70;;
51824;SDS011;37879;52.986;6.282;2022-07-23T07:32:41;0.98;;;0.40;;
51824;SDS011;37879;52.986;6.282;2022-07-23T07:35:07;0.85;;;0.40;;
51824;SDS011;37879;52.986;6.282;2022-07-23T07:37:34;4.13;;;0.60;;
51824;SDS011;37879;52.986;6.282;2022-07-23T07:40:00;0.85;;;0.35;;
51824;SDS011;37879;52.986;6.282;2022-07-23T07:42:26;1.05;;;0.38;;
51824;SDS011;37879;52.986;6.282;2022-07-23T07:44:52;2.65;;;0.47;;
51824;SDS011;37879;52.986;6.282;2022-07-23T07:47:18;1.13;;;0.45;;
51824;SDS011;37879;52.986;6.282;2022-07-23T07:49:44;0.75;;;0.40;;
51824;SDS011;37879;52.986;6.282;2022-07-23T07:52:11;3.10;;;1.08;;
51824;SDS011;37879;52.986;6.282;2022-07-23T07:54:37;0.57;;;0.30;;
51824;SDS011;37879;52.986;6.282;2022-07-23T07:57:03;0.75;;;0.35;;
51824;SDS011;37879;52.986;6.282;2022-07-23T07:59:29;3.83;;;0.40;;
51824;SDS011;37879;52.986;6.282;2022-07-23T08:01:55;0.40;;;0.20;;
51824;SDS011;37879;52.986;6.282;2022-07-23T08:04:21;1.08;;;0.40;;
51824;SDS011;37879;52.986;6.282;2022-07-23T08:06:47;3.20;;;0.73;;
51824;SDS011;37879;52.986;6.282;2022-07-23T08:09:14;1.67;;;0.30;;
51824;SDS011;37879;52.986;6.282;2022-07-23T08:11:40;0.50;;;0.38;;
51824;SDS011;37879;52.986;6.282;2022-07-23T08:14:06;1.58;;;0.40;;
51824;SDS011;37879;52.986;6.282;2022-07-23T08:16:32;0.50;;;0.30;;
51824;SDS011;37879;52.986;6.282;2022-07-23T08:18:59;1.42;;;0.40;;
51824;SDS011;37879;52.986;6.282;2022-07-23T08:21:25;0.88;;;0.40;;
51824;SDS011;37879;52.986;6.282;2022-07-23T08:23:51;0.98;;;0.50;;
51824;SDS011;37879;52.986;6.282;2022-07-23T08:26:17;1.23;;;0.47;;
51824;SDS011;37879;52.986;6.282;2022-07-23T08:28:43;1.40;;;0.50;;
51824;SDS011;37879;52.986;6.282;2022-07-23T08:31:09;1.83;;;0.35;;
51824;SDS011;37879;52.986;6.282;2022-07-23T08:33:36;2.45;;;0.40;;
51824;SDS011;37879;52.986;6.282;2022-07-23T08:36:03;3.53;;;0.40;;
51824;SDS011;37879;52.986;6.282;2022-07-23T08:38:30;0.63;;;0.30;;
51824;SDS011;37879;52.986;6.282;2022-07-23T08:40:56;0.80;;;0.38;;
51824;SDS011;37879;52.986;6.282;2022-07-23T08:43:23;1.02;;;0.30;;
51824;SDS011;37879;52.986;6.282;2022-07-23T08:45:55;1.30;;;0.40;;
51824;SDS011;37879;52.986;6.282;2022-07-23T08:48:25;0.57;;;0.38;;
51824;SDS011;37879;52.986;6.282;2022-07-23T08:50:53;2.38;;;0.50;;
51824;SDS011;37879;52.986;6.282;2022-07-23T08:53:19;2.00;;;0.40;;
51824;SDS011;37879;52.986;6.282;2022-07-23T08:55:47;0.70;;;0.25;;
51824;SDS011;37879;52.986;6.282;2022-07-23T08:58:14;0.80;;;0.40;;
51824;SDS011;37879;52.986;6.282;2022-07-23T09:00:40;1.73;;;0.40;;
51824;SDS011;37879;52.986;6.282;2022-07-23T09:03:19;1.85;;;0.43;;
51824;SDS011;37879;52.986;6.282;2022-07-23T09:05:45;0.50;;;0.30;;
51824;SDS011;37879;52.986;6.282;2022-07-23T09:08:13;0.60;;;0.40;;
51824;SDS011;37879;52.986;6.282;2022-07-23T09:10:50;1.08;;;0.47;;
51824;SDS011;37879;52.986;6.282;2022-07-23T09:15:49;1.08;;;0.52;;
51824;SDS011;37879;52.986;6.282;2022-07-23T09:18:16;1.48;;;0.50;;
51824;SDS011;37879;52.986;6.282;2022-07-23T09:20:43;1.38;;;0.43;;
51824;SDS011;37879;52.986;6.282;2022-07-23T09:23:09;0.68;;;0.30;;
51824;SDS011;37879;52.986;6.282;2022-07-23T09:25:35;2.05;;;0.40;;
51824;SDS011;37879;52.986;6.282;2022-07-23T09:28:02;1.35;;;0.50;;
51824;SDS011;37879;52.986;6.282;2022-07-23T09:30:30;2.88;;;0.80;;
51824;SDS011;37879;52.986;6.282;2022-07-23T09:33:06;1.00;;;0.50;;
51824;SDS011;37879;52.986;6.282;2022-07-23T09:35:45;1.90;;;0.55;;
51824;SDS011;37879;52.986;6.282;2022-07-23T09:38:12;2.88;;;0.75;;
51824;SDS011;37879;52.986;6.282;2022-07-23T09:40:38;2.17;;;0.45;;
51824;SDS011;37879;52.986;6.282;2022-07-23T09:43:04;1.63;;;0.50;;
51824;SDS011;37879;52.986;6.282;2022-07-23T09:45:30;1.75;;;0.50;;
51824;SDS011;37879;52.986;6.282;2022-07-23T09:48:15;0.90;;;0.60;;
51824;SDS011;37879;52.986;6.282;2022-07-23T09:50:42;5.35;;;0.57;;
51824;SDS011;37879;52.986;6.282;2022-07-23T09:53:09;0.90;;;0.43;;
51824;SDS011;37879;52.986;6.282;2022-07-23T09:55:35;1.67;;;0.70;;
51824;SDS011;37879;52.986;6.282;2022-07-23T09:58:05;1.08;;;0.50;;
51824;SDS011;37879;52.986;6.282;2022-07-23T10:00:36;1.45;;;0.90;;
51824;SDS011;37879;52.986;6.282;2022-07-23T10:03:02;1.05;;;0.60;;
51824;SDS011;37879;52.986;6.282;2022-07-23T10:05:31;3.38;;;0.75;;
51824;SDS011;37879;52.986;6.282;2022-07-23T10:07:57;1.48;;;0.55;;
51824;SDS011;37879;52.986;6.282;2022-07-23T10:10:25;1.52;;;0.60;;
51824;SDS011;37879;52.986;6.282;2022-07-23T10:12:54;1.83;;;0.45;;
51824;SDS011;37879;52.986;6.282;2022-07-23T10:15:45;2.20;;;0.68;;
51824;SDS011;37879;52.986;6.282;2022-07-23T10:18:12;1.60;;;0.77;;
51824;SDS011;37879;52.986;6.282;2022-07-23T10:20:39;2.63;;;0.82;;
51824;SDS011;37879;52.986;6.282;2022-07-23T10:23:27;2.38;;;1.00;;
51824;SDS011;37879;52.986;6.282;2022-07-23T10:36:05;1.95;;;1.05;;
51824;SDS011;37879;52.986;6.282;2022-07-23T10:41:03;1.95;;;1.02;;
51824;SDS011;37879;52.986;6.282;2022-07-23T10:43:29;3.47;;;0.90;;
51824;SDS011;37879;52.986;6.282;2022-07-23T10:45:56;3.50;;;1.10;;
51824;SDS011;37879;52.986;6.282;2022-07-23T10:48:42;1.88;;;0.70;;
51824;SDS011;37879;52.986;6.282;2022-07-23T10:56:15;3.05;;;1.17;;
51824;SDS011;37879;52.986;6.282;2022-07-23T10:58:45;1.35;;;0.90;;
51824;SDS011;37879;52.986;6.282;2022-07-23T11:03:57;1.67;;;1.15;;
51824;SDS011;37879;52.986;6.282;2022-07-23T11:06:24;1.20;;;0.90;;
51824;SDS011;37879;52.986;6.282;2022-07-23T11:09:22;2.33;;;1.02;;
51824;SDS011;37879;52.986;6.282;2022-07-23T11:11:36;3.75;;;1.13;;
51824;SDS011;37879;52.986;6.282;2022-07-23T11:14:02;1.80;;;1.02;;
51824;SDS011;37879;52.986;6.282;2022-07-23T11:16:28;1.77;;;0.88;;
51824;SDS011;37879;52.986;6.282;2022-07-23T11:18:55;3.03;;;0.90;;
51824;SDS011;37879;52.986;6.282;2022-07-23T11:36:58;1.65;;;1.13;;
51824;SDS011;37879;52.986;6.282;2022-07-23T11:39:25;3.20;;;1.38;;
51824;SDS011;37879;52.986;6.282;2022-07-23T11:41:55;3.35;;;1.20;;
51824;SDS011;37879;52.986;6.282;2022-07-23T11:44:31;2.20;;;1.10;;
51824;SDS011;37879;52.986;6.282;2022-07-23T11:46:58;2.70;;;1.20;;
51824;SDS011;37879;52.986;6.282;2022-07-23T11:49:25;3.72;;;1.40;;
51824;SDS011;37879;52.986;6.282;2022-07-23T11:54:30;5.70;;;1.30;;
51824;SDS011;37879;52.986;6.282;2022-07-23T11:56:59;1.40;;;0.95;;
51824;SDS011;37879;52.986;6.282;2022-07-23T11:59:26;4.20;;;1.40;;
51824;SDS011;37879;52.986;6.282;2022-07-23T12:01:56;2.78;;;0.95;;
51824;SDS011;37879;52.986;6.282;2022-07-23T12:04:23;3.30;;;1.17;;
51824;SDS011;37879;52.986;6.282;2022-07-23T12:06:49;1.50;;;0.90;;
51824;SDS011;37879;52.986;6.282;2022-07-23T12:09:15;4.18;;;1.52;;
51824;SDS011;37879;52.986;6.282;2022-07-23T12:11:56;4.25;;;0.98;;
51824;SDS011;37879;52.986;6.282;2022-07-23T12:14:22;2.65;;;1.00;;
51824;SDS011;37879;52.986;6.282;2022-07-23T12:17:06;2.90;;;1.33;;
51824;SDS011;37879;52.986;6.282;2022-07-23T12:19:32;3.05;;;1.10;;
51824;SDS011;37879;52.986;6.282;2022-07-23T12:21:58;3.20;;;1.40;;
51824;SDS011;37879;52.986;6.282;2022-07-23T12:24:25;1.80;;;1.00;;
51824;SDS011;37879;52.986;6.282;2022-07-23T12:27:10;1.13;;;0.93;;
51824;SDS011;37879;52.986;6.282;2022-07-23T12:29:36;2.03;;;1.17;;
51824;SDS011;37879;52.986;6.282;2022-07-23T12:32:15;3.33;;;1.45;;
51824;SDS011;37879;52.986;6.282;2022-07-23T12:34:42;3.08;;;1.27;;
51824;SDS011;37879;52.986;6.282;2022-07-23T12:37:08;2.10;;;1.42;;
51824;SDS011;37879;52.986;6.282;2022-07-23T12:39:34;3.88;;;1.48;;
51824;SDS011;37879;52.986;6.282;2022-07-23T12:42:00;3.22;;;1.30;;
51824;SDS011;37879;52.986;6.282;2022-07-23T12:44:26;2.13;;;0.95;;
51824;SDS011;37879;52.986;6.282;2022-07-23T12:46:52;4.53;;;1.42;;
51824;SDS011;37879;52.986;6.282;2022-07-23T12:49:25;2.15;;;1.33;;
51824;SDS011;37879;52.986;6.282;2022-07-23T12:51:51;2.33;;;1.20;;
51824;SDS011;37879;52.986;6.282;2022-07-23T12:54:18;2.38;;;1.33;;
51824;SDS011;37879;52.986;6.282;2022-07-23T12:56:45;2.30;;;1.30;;
51824;SDS011;37879;52.986;6.282;2022-07-23T12:59:12;2.05;;;1.30;;
51824;SDS011;37879;52.986;6.282;2022-07-23T13:01:44;2.35;;;1.30;;
51824;SDS011;37879;52.986;6.282;2022-07-23T13:06:44;1.55;;;1.23;;
51824;SDS011;37879;52.986;6.282;2022-07-23T13:09:11;4.45;;;1.20;;
51824;SDS011;37879;52.986;6.282;2022-07-23T13:11:38;1.70;;;1.02;;
51824;SDS011;37879;52.986;6.282;2022-07-23T13:14:04;3.50;;;1.33;;
51824;SDS011;37879;52.986;6.282;2022-07-23T13:16:31;1.75;;;1.23;;
51824;SDS011;37879;52.986;6.282;2022-07-23T13:18:57;3.05;;;1.30;;
51824;SDS011;37879;52.986;6.282;2022-07-23T13:21:24;3.45;;;1.58;;
51824;SDS011;37879;52.986;6.282;2022-07-23T13:23:50;3.00;;;1.40;;
51824;SDS011;37879;52.986;6.282;2022-07-23T13:26:16;2.85;;;1.30;;
51824;SDS011;37879;52.986;6.282;2022-07-23T13:28:42;1.85;;;1.30;;
51824;SDS011;37879;52.986;6.282;2022-07-23T13:31:08;3.15;;;1.38;;
51824;SDS011;37879;52.986;6.282;2022-07-23T13:33:34;2.85;;;1.55;;
51824;SDS011;37879;52.986;6.282;2022-07-23T13:36:01;3.22;;;1.60;;
51824;SDS011;37879;52.986;6.282;2022-07-23T13:38:27;2.40;;;1.65;;
51824;SDS011;37879;52.986;6.282;2022-07-23T13:40:53;2.67;;;1.48;;
51824;SDS011;37879;52.986;6.282;2022-07-23T13:43:21;3.75;;;1.40;;
51824;SDS011;37879;52.986;6.282;2022-07-23T13:45:48;1.42;;;1.10;;
51824;SDS011;37879;52.986;6.282;2022-07-23T13:48:15;6.57;;;1.50;;
51824;SDS011;37879;52.986;6.282;2022-07-23T13:50:41;1.60;;;1.20;;
51824;SDS011;37879;52.986;6.282;2022-07-23T13:53:09;4.43;;;0.98;;
51824;SDS011;37879;52.986;6.282;2022-07-23T13:55:36;3.25;;;1.15;;
51824;SDS011;37879;52.986;6.282;2022-07-23T13:58:02;3.08;;;1.17;;
51824;SDS011;37879;52.986;6.282;2022-07-23T14:00:29;1.80;;;1.10;;
51824;SDS011;37879;52.986;6.282;2022-07-23T14:02:57;2.65;;;0.90;;
51824;SDS011;37879;52.986;6.282;2022-07-23T14:05:23;2.22;;;1.40;;
51824;SDS011;37879;52.986;6.282;2022-07-23T14:07:49;1.40;;;1.10;;
51824;SDS011;37879;52.986;6.282;2022-07-23T14:10:17;2.00;;;1.40;;
51824;SDS011;37879;52.986;6.282;2022-07-23T14:12:47;2.25;;;1.15;;
51824;SDS011;37879;52.986;6.282;2022-07-23T14:15:13;4.82;;;1.50;;
51824;SDS011;37879;52.986;6.282;2022-07-23T14:17:40;2.85;;;1.25;;
51824;SDS011;37879;52.986;6.282;2022-07-23T14:20:07;1.83;;;1.50;;
51824;SDS011;37879;52.986;6.282;2022-07-23T14:22:34;1.75;;;1.30;;
51824;SDS011;37879;52.986;6.282;2022-07-23T14:25:00;2.05;;;1.50;;
51824;SDS011;37879;52.986;6.282;2022-07-23T14:27:27;2.70;;;1.27;;
51824;SDS011;37879;52.986;6.282;2022-07-23T14:29:53;2.63;;;1.23;;
51824;SDS011;37879;52.986;6.282;2022-07-23T14:32:20;3.67;;;1.25;;
51824;SDS011;37879;52.986;6.282;2022-07-23T14:34:47;2.58;;;1.50;;
51824;SDS011;37879;52.986;6.282;2022-07-23T14:37:13;2.67;;;1.60;;
51824;SDS011;37879;52.986;6.282;2022-07-23T14:39:40;2.05;;;1.35;;
51824;SDS011;37879;52.986;6.282;2022-07-23T14:42:07;2.08;;;1.48;;
51824;SDS011;37879;52.986;6.282;2022-07-23T14:44:33;2.47;;;1.27;;
51824;SDS011;37879;52.986;6.282;2022-07-23T14:47:00;3.10;;;1.10;;
51824;SDS011;37879;52.986;6.282;2022-07-23T14:49:26;2.75;;;0.98;;
51824;SDS011;37879;52.986;6.282;2022-07-23T14:51:53;1.92;;;0.70;;
51824;SDS011;37879;52.986;6.282;2022-07-23T14:54:19;0.80;;;0.70;;
51824;SDS011;37879;52.986;6.282;2022-07-23T14:56:45;1.50;;;1.20;;
51824;SDS011;37879;52.986;6.282;2022-07-23T14:59:12;2.90;;;1.55;;
51824;SDS011;37879;52.986;6.282;2022-07-23T15:01:38;1.17;;;1.00;;
51824;SDS011;37879;52.986;6.282;2022-07-23T15:04:05;2.47;;;1.27;;
51824;SDS011;37879;52.986;6.282;2022-07-23T15:06:31;1.75;;;1.05;;
51824;SDS011;37879;52.986;6.282;2022-07-23T15:08:58;1.60;;;0.95;;
51824;SDS011;37879;52.986;6.282;2022-07-23T15:11:25;2.00;;;1.20;;
51824;SDS011;37879;52.986;6.282;2022-07-23T15:13:52;1.85;;;1.13;;
51824;SDS011;37879;52.986;6.282;2022-07-23T15:16:18;2.85;;;1.38;;
51824;SDS011;37879;52.986;6.282;2022-07-23T15:18:44;2.85;;;1.20;;
51824;SDS011;37879;52.986;6.282;2022-07-23T15:21:13;2.88;;;1.30;;
51824;SDS011;37879;52.986;6.282;2022-07-23T15:23:39;2.50;;;1.02;;
51824;SDS011;37879;52.986;6.282;2022-07-23T15:26:06;3.67;;;1.23;;
51824;SDS011;37879;52.986;6.282;2022-07-23T15:28:33;1.65;;;0.77;;
51824;SDS011;37879;52.986;6.282;2022-07-23T15:34:25;2.20;;;0.70;;